createdAt,value
2018-02-19T00:00:27.984Z,10.77
2018-02-19T00:02:56.321Z,10.90
2018-02-19T00:05:24.638Z,12.20
2018-02-19T00:07:52.965Z,9.97
2018-02-19T00:10:25.657Z,10.40
2018-02-19T00:12:53.957Z,10.07
2018-02-19T00:15:22.347Z,10.53
2018-02-19T00:17:51.058Z,10.50
2018-02-19T00:20:19.442Z,10.73
2018-02-19T00:22:48.941Z,10.50
2018-02-19T00:25:18.986Z,11.03
2018-02-19T00:27:48.285Z,10.50
2018-02-19T00:30:16.614Z,10.80
2018-02-19T00:32:45.110Z,11.20
2018-02-19T00:35:14.205Z,10.80
2018-02-19T00:37:46.725Z,10.93
2018-02-19T00:40:15.243Z,10.93
2018-02-19T00:42:43.586Z,10.60
2018-02-19T00:45:12.013Z,10.20
2018-02-19T00:47:40.548Z,10.87
2018-02-19T00:50:08.938Z,10.63
2018-02-19T00:52:37.534Z,11.50
2018-02-19T00:55:06.212Z,11.60
2018-02-19T00:57:34.540Z,11.37
2018-02-19T01:00:03.077Z,9.83
2018-02-19T01:02:31.569Z,11.20
2018-02-19T01:04:59.967Z,10.80
2018-02-19T01:07:28.411Z,11.67
2018-02-19T01:09:56.816Z,11.40
2018-02-19T01:12:25.162Z,11.77
2018-02-19T01:14:53.642Z,10.67
2018-02-19T01:17:22.025Z,10.53
2018-02-19T01:19:50.439Z,11.30
2018-02-19T01:22:18.823Z,10.80
2018-02-19T01:24:47.184Z,10.10
2018-02-19T01:27:15.566Z,11.23
2018-02-19T01:29:43.917Z,10.30
2018-02-19T01:32:12.240Z,10.77
2018-02-19T01:34:40.652Z,10.87
2018-02-19T01:37:09.008Z,10.70
2018-02-19T01:39:37.640Z,9.47
2018-02-19T01:42:06.017Z,10.10
2018-02-19T01:44:34.636Z,10.30
2018-02-19T01:47:02.989Z,9.93
2018-02-19T01:49:38.653Z,9.70
2018-02-19T01:52:13.516Z,10.70
2018-02-19T01:54:42.381Z,10.40
2018-02-19T01:57:10.949Z,9.60
2018-02-19T01:59:39.217Z,10.23
2018-02-19T02:02:07.529Z,10.80
2018-02-19T02:04:35.958Z,10.60
2018-02-19T02:07:04.302Z,10.60
2018-02-19T02:09:32.815Z,10.83
2018-02-19T02:12:01.210Z,10.50
2018-02-19T02:14:29.489Z,10.80
2018-02-19T02:16:57.834Z,10.53
2018-02-19T02:19:26.169Z,10.07
2018-02-19T02:21:54.550Z,10.97
2018-02-19T02:24:23.003Z,10.97
2018-02-19T02:26:51.349Z,10.20
2018-02-19T02:29:19.771Z,10.53
2018-02-19T02:31:48.243Z,11.43
2018-02-19T02:34:16.541Z,9.70
2018-02-19T02:36:44.877Z,10.70
2018-02-19T02:39:13.210Z,10.63
2018-02-19T02:41:41.583Z,10.30
2018-02-19T02:44:09.881Z,10.80
2018-02-19T02:46:40.144Z,10.43
2018-02-19T02:49:08.540Z,10.90
2018-02-19T02:51:36.916Z,10.70
2018-02-19T02:54:05.297Z,11.37
2018-02-19T02:56:33.655Z,10.23
2018-02-19T02:59:01.974Z,10.57
2018-02-19T03:01:30.304Z,9.27
2018-02-19T03:03:58.799Z,10.60
2018-02-19T03:06:27.109Z,9.50
2018-02-19T03:08:55.466Z,10.07
2018-02-19T03:11:23.833Z,10.60
2018-02-19T03:13:52.141Z,10.80
2018-02-19T03:16:20.829Z,10.70
2018-02-19T03:18:49.157Z,10.00
2018-02-19T03:21:17.482Z,11.00
2018-02-19T03:23:45.792Z,10.43
2018-02-19T03:26:14.109Z,9.23
2018-02-19T03:28:42.505Z,9.90
2018-02-19T03:31:10.939Z,10.17
2018-02-19T03:33:39.405Z,11.00
2018-02-19T03:36:07.705Z,9.90
2018-02-19T03:38:35.980Z,11.33
2018-02-19T03:41:04.360Z,10.20
2018-02-19T03:43:32.652Z,10.70
2018-02-19T03:46:01.020Z,10.40
2018-02-19T03:48:29.341Z,11.37
2018-02-19T03:50:57.645Z,10.70
2018-02-19T03:53:25.937Z,11.10
2018-02-19T03:55:54.266Z,11.47
2018-02-19T03:58:22.740Z,11.73
2018-02-19T04:00:51.093Z,11.30
2018-02-19T04:03:19.383Z,10.90
2018-02-19T04:05:47.690Z,10.63
2018-02-19T04:08:16.216Z,12.57
2018-02-19T04:10:44.542Z,12.77
2018-02-19T04:13:12.873Z,12.90
2018-02-19T04:15:41.382Z,11.70
2018-02-19T04:18:09.837Z,11.33
2018-02-19T04:20:38.336Z,11.60
2018-02-19T04:23:06.665Z,11.10
2018-02-19T04:25:34.991Z,11.80
2018-02-19T04:28:03.362Z,11.70
2018-02-19T04:30:31.741Z,11.40
2018-02-19T04:33:00.137Z,11.50
2018-02-19T04:35:28.457Z,11.60
2018-02-19T04:37:56.785Z,12.00
2018-02-19T04:40:25.154Z,11.70
2018-02-19T04:42:54.093Z,11.70
2018-02-19T04:45:22.441Z,13.00
2018-02-19T04:47:50.882Z,12.20
2018-02-19T04:50:19.200Z,12.83
2018-02-19T04:52:47.682Z,11.67
2018-02-19T04:55:15.999Z,13.07
2018-02-19T04:57:44.288Z,12.93
2018-02-19T05:03:11.378Z,12.47
2018-02-19T05:05:40.242Z,12.03
2018-02-19T05:08:09.155Z,12.50
2018-02-19T05:10:38.175Z,12.23
2018-02-19T05:13:07.068Z,14.20
2018-02-19T05:15:35.960Z,12.33
2018-02-19T05:18:04.733Z,12.20
2018-02-19T05:20:33.799Z,12.80
2018-02-19T05:23:02.730Z,13.13
2018-02-19T05:25:32.106Z,13.40
2018-02-19T05:28:01.014Z,13.40
2018-02-19T05:30:30.119Z,15.07
2018-02-19T05:32:59.625Z,12.87
2018-02-19T05:35:28.789Z,13.17
2018-02-19T05:37:57.982Z,13.60
2018-02-19T05:40:27.109Z,14.20
2018-02-19T05:42:55.926Z,13.50
2018-02-19T05:45:24.643Z,14.70
2018-02-19T05:47:53.580Z,14.00
2018-02-19T05:50:22.666Z,14.60
2018-02-19T05:52:51.560Z,14.10
2018-02-19T05:55:20.458Z,14.90
2018-02-19T05:57:49.432Z,14.27
2018-02-19T06:00:18.451Z,13.20
2018-02-19T06:02:47.539Z,15.40
2018-02-19T06:05:16.245Z,15.50
2018-02-19T06:07:45.105Z,13.03
2018-02-19T06:10:14.561Z,13.30
2018-02-19T06:12:43.515Z,15.43
2018-02-19T06:15:12.589Z,13.83
2018-02-19T06:17:43.718Z,14.60
2018-02-19T06:20:12.433Z,15.97
2018-02-19T06:22:41.329Z,14.30
2018-02-19T06:25:11.723Z,15.17
2018-02-19T06:27:40.542Z,14.70
2018-02-19T06:30:10.980Z,14.70
2018-02-19T06:32:41.447Z,14.83
2018-02-19T06:35:12.377Z,14.73
2018-02-19T06:37:42.027Z,14.40
2018-02-19T06:40:12.115Z,15.20
2018-02-19T06:42:45.303Z,15.60
2018-02-19T06:45:15.754Z,15.40
2018-02-19T06:47:44.771Z,16.67
2018-02-19T06:50:14.910Z,15.47
2018-02-19T06:52:50.335Z,14.87
2018-02-19T06:55:19.431Z,15.50
2018-02-19T06:57:48.094Z,16.67
2018-02-19T07:00:17.258Z,16.47
2018-02-19T07:02:46.411Z,15.60
2018-02-19T07:05:15.199Z,14.70
2018-02-19T07:07:43.931Z,16.27
2018-02-19T07:10:12.762Z,15.73
2018-02-19T07:12:41.868Z,16.47
2018-02-19T07:15:17.910Z,17.70
2018-02-19T07:17:47.148Z,18.10
2018-02-19T07:20:16.363Z,17.40
2018-02-19T07:22:45.406Z,16.10
2018-02-19T07:25:14.502Z,16.50
2018-02-19T07:27:43.809Z,16.80
2018-02-19T07:30:12.498Z,16.13
2018-02-19T07:32:41.765Z,16.30
2018-02-19T07:35:10.895Z,15.73
2018-02-19T07:37:40.194Z,16.33
2018-02-19T07:40:09.266Z,17.20
2018-02-19T07:42:38.384Z,15.67
2018-02-19T07:45:07.671Z,17.70
2018-02-19T07:47:36.974Z,16.73
2018-02-19T07:50:06.093Z,19.20
2018-02-19T07:52:34.891Z,16.83
2018-02-19T07:55:03.674Z,22.20
2018-02-19T07:57:32.743Z,19.00
2018-02-19T08:00:01.642Z,17.27
2018-02-19T08:02:30.522Z,16.47
2018-02-19T08:04:59.822Z,16.10
2018-02-19T08:07:28.713Z,16.93
2018-02-19T08:09:57.679Z,17.77
2018-02-19T08:12:26.449Z,16.53
2018-02-19T08:14:56.059Z,17.23
2018-02-19T08:17:25.099Z,16.60
2018-02-19T08:19:53.979Z,17.17
2018-02-19T08:22:22.938Z,16.13
2018-02-19T08:24:52.175Z,17.97
2018-02-19T08:27:21.001Z,16.40
2018-02-19T08:29:49.954Z,15.97
2018-02-19T08:32:19.266Z,17.00
2018-02-19T08:34:48.428Z,16.60
2018-02-19T08:37:17.446Z,16.37
2018-02-19T08:39:46.159Z,16.30
2018-02-19T08:42:14.943Z,16.30
2018-02-19T08:44:43.706Z,16.13
2018-02-19T08:47:12.495Z,15.93
2018-02-19T08:49:41.148Z,15.77
2018-02-19T08:52:16.843Z,17.53
2018-02-19T08:54:45.823Z,16.87
2018-02-19T08:57:15.043Z,16.20
2018-02-19T08:59:43.822Z,17.80
2018-02-19T09:02:12.737Z,16.43
2018-02-19T09:04:42.166Z,15.03
2018-02-19T09:07:11.051Z,15.57
2018-02-19T09:09:46.893Z,17.33
2018-02-19T09:12:15.754Z,15.43
2018-02-19T09:14:44.814Z,16.60
2018-02-19T09:17:13.671Z,17.03
2018-02-19T09:19:42.681Z,16.53
2018-02-19T09:22:11.543Z,15.90
2018-02-19T09:24:40.513Z,14.63
2018-02-19T09:27:09.606Z,16.13
2018-02-19T09:29:38.685Z,15.90
2018-02-19T09:32:07.796Z,15.67
2018-02-19T09:34:36.874Z,17.17
2018-02-19T09:37:05.986Z,15.77
2018-02-19T09:39:34.870Z,16.57
2018-02-19T09:42:03.768Z,15.87
2018-02-19T09:44:33.241Z,16.10
2018-02-19T09:47:02.156Z,15.67
2018-02-19T09:49:31.041Z,15.37
2018-02-19T09:52:00.342Z,16.20
2018-02-19T09:54:31.083Z,15.17
2018-02-19T09:57:00.173Z,16.83
2018-02-19T09:59:29.075Z,16.03
2018-02-19T10:01:58.371Z,16.10
2018-02-19T10:04:27.015Z,16.63
2018-02-19T10:06:55.679Z,17.17
2018-02-19T10:09:24.815Z,16.50
2018-02-19T10:11:53.750Z,16.80
2018-02-19T10:14:22.825Z,16.87
2018-02-19T10:16:51.850Z,16.53
2018-02-19T10:19:21.391Z,16.83
2018-02-19T10:21:50.522Z,16.00
2018-02-19T10:24:20.473Z,17.37
2018-02-19T10:26:49.578Z,15.43
2018-02-19T10:29:18.621Z,16.10
2018-02-19T10:31:47.474Z,16.80
2018-02-19T10:34:16.502Z,16.23
2018-02-19T10:36:45.194Z,17.07
2018-02-19T10:39:14.494Z,15.93
2018-02-19T10:41:43.569Z,15.70
2018-02-19T10:44:12.685Z,17.37
2018-02-19T10:46:42.177Z,16.30
2018-02-19T10:49:11.077Z,16.50
2018-02-19T10:51:40.389Z,15.80
2018-02-19T10:54:09.671Z,18.33
2018-02-19T10:56:38.510Z,18.80
2018-02-19T10:59:07.873Z,15.80
2018-02-19T11:01:36.895Z,16.93
2018-02-19T11:04:06.056Z,16.53
2018-02-19T11:06:34.811Z,16.37
2018-02-19T11:09:03.941Z,16.80
2018-02-19T11:11:32.722Z,16.10
2018-02-19T11:14:01.611Z,16.80
2018-02-19T11:16:30.489Z,16.00
2018-02-19T11:18:59.478Z,17.00
2018-02-19T11:21:28.559Z,17.27
2018-02-19T11:23:57.389Z,16.60
2018-02-19T11:26:26.306Z,16.80
2018-02-19T11:28:55.119Z,16.97
2018-02-19T11:31:24.470Z,18.50
2018-02-19T11:33:53.152Z,15.80
2018-02-19T11:36:22.237Z,18.83
2018-02-19T11:38:55.446Z,17.80
2018-02-19T11:41:20.271Z,17.17
2018-02-19T11:43:49.027Z,16.43
2018-02-19T11:46:17.802Z,16.73
2018-02-19T11:48:46.600Z,14.80
2018-02-19T11:51:15.626Z,15.47
2018-02-19T11:53:44.473Z,16.37
2018-02-19T11:56:13.581Z,16.40
2018-02-19T11:58:42.368Z,16.10
2018-02-19T12:01:11.147Z,15.90
2018-02-19T12:03:40.406Z,16.13
2018-02-19T12:06:09.548Z,17.63
2018-02-19T12:08:38.630Z,17.40
2018-02-19T12:11:07.526Z,18.07
2018-02-19T12:13:36.423Z,17.73
2018-02-19T12:16:05.313Z,16.90
2018-02-19T12:18:34.351Z,17.37
2018-02-19T12:21:03.928Z,17.93
2018-02-19T12:23:38.442Z,18.53
2018-02-19T12:26:08.208Z,18.37
2018-02-19T12:28:37.800Z,17.10
2018-02-19T12:31:07.181Z,15.83
2018-02-19T12:33:36.254Z,17.30
2018-02-19T12:36:05.920Z,16.67
2018-02-19T12:38:34.856Z,15.40
2018-02-19T12:41:03.580Z,15.90
2018-02-19T12:43:32.610Z,16.53
2018-02-19T12:46:01.842Z,14.60
2018-02-19T12:48:30.785Z,15.67
2018-02-19T12:50:59.718Z,15.60
2018-02-19T12:53:28.603Z,16.87
2018-02-19T12:55:57.498Z,15.23
2018-02-19T12:58:26.479Z,15.27
2018-02-19T13:00:55.405Z,16.20
2018-02-19T13:03:24.054Z,15.43
2018-02-19T13:05:53.118Z,14.60
2018-02-19T13:08:22.232Z,16.80
2018-02-19T13:10:51.342Z,14.17
2018-02-19T13:13:20.438Z,14.17
2018-02-19T13:15:49.381Z,16.60
2018-02-19T13:18:18.296Z,15.90
2018-02-19T13:20:47.731Z,14.87
2018-02-19T13:23:16.870Z,14.90
2018-02-19T13:25:45.925Z,13.83
2018-02-19T13:28:15.017Z,15.23
2018-02-19T13:30:43.810Z,14.97
2018-02-19T13:33:12.783Z,13.90
2018-02-19T13:35:41.682Z,13.67
2018-02-19T13:38:11.187Z,13.40
2018-02-19T13:40:40.127Z,13.50
2018-02-19T13:43:08.823Z,14.50
2018-02-19T13:45:37.835Z,12.70
2018-02-19T13:48:06.627Z,12.57
2018-02-19T13:50:36.066Z,13.40
2018-02-19T13:53:05.357Z,12.83
2018-02-19T13:55:34.362Z,13.20
2018-02-19T13:58:03.241Z,13.50
2018-02-19T14:00:31.996Z,13.70
2018-02-19T14:03:00.799Z,13.37
2018-02-19T14:05:29.914Z,11.40
2018-02-19T14:07:59.104Z,11.70
2018-02-19T14:10:28.094Z,12.20
2018-02-19T14:12:56.982Z,12.60
2018-02-19T14:15:26.398Z,11.80
2018-02-19T14:17:55.284Z,13.37
2018-02-19T14:20:24.165Z,13.17
2018-02-19T14:22:54.915Z,13.43
2018-02-19T14:25:28.039Z,11.97
2018-02-19T14:27:57.610Z,11.10
2018-02-19T14:30:30.498Z,12.07
2018-02-19T14:32:59.893Z,12.87
2018-02-19T14:35:28.571Z,13.63
2018-02-19T14:37:57.399Z,13.40
2018-02-19T14:40:26.350Z,13.03
2018-02-19T14:42:55.286Z,13.67
2018-02-19T14:45:24.588Z,13.90
2018-02-19T14:47:53.647Z,14.23
2018-02-19T14:50:22.449Z,14.40
2018-02-19T14:52:51.623Z,13.10
2018-02-19T14:55:20.499Z,12.60
2018-02-19T14:57:49.620Z,12.87
2018-02-19T15:00:18.738Z,13.30
2018-02-19T15:02:47.396Z,11.83
2018-02-19T15:05:16.279Z,12.40
2018-02-19T15:07:45.352Z,11.90
2018-02-19T15:10:14.316Z,13.10
2018-02-19T15:12:43.300Z,13.70
2018-02-19T15:15:12.323Z,13.00
2018-02-19T15:17:41.354Z,14.17
2018-02-19T15:20:16.955Z,12.60
2018-02-19T15:22:46.305Z,12.60
2018-02-19T15:25:14.967Z,13.07
2018-02-19T15:27:44.278Z,12.13
2018-02-19T15:30:13.545Z,12.30
2018-02-19T15:32:42.470Z,12.37
2018-02-19T15:35:11.989Z,11.03
2018-02-19T15:37:40.871Z,13.00
2018-02-19T15:40:09.764Z,12.77
2018-02-19T15:42:38.866Z,12.47
2018-02-19T15:45:07.761Z,12.20
2018-02-19T15:47:36.876Z,13.40
2018-02-19T15:50:05.739Z,12.73
2018-02-19T15:52:34.790Z,12.77
2018-02-19T15:55:03.702Z,12.60
2018-02-19T15:57:36.270Z,11.93
2018-02-19T16:00:05.392Z,12.23
2018-02-19T16:02:34.287Z,13.00
2018-02-19T16:05:03.166Z,12.63
2018-02-19T16:07:32.394Z,12.37
2018-02-19T16:10:01.167Z,13.70
2018-02-19T16:12:30.362Z,13.80
2018-02-19T16:14:59.162Z,13.30
2018-02-19T16:17:28.056Z,13.57
2018-02-19T16:19:57.042Z,13.80
2018-02-19T16:22:26.113Z,12.97
2018-02-19T16:24:55.226Z,13.87
2018-02-19T16:27:24.112Z,13.83
2018-02-19T16:29:52.942Z,14.00
2018-02-19T16:32:22.099Z,14.30
2018-02-19T16:34:50.989Z,16.23
2018-02-19T16:37:20.085Z,14.73
2018-02-19T16:39:48.971Z,14.27
2018-02-19T16:42:17.871Z,14.27
2018-02-19T16:44:47.339Z,14.17
2018-02-19T16:47:17.066Z,14.50
2018-02-19T16:49:45.976Z,13.07
2018-02-19T16:52:15.434Z,14.80
2018-02-19T16:54:44.800Z,15.73
2018-02-19T16:57:14.078Z,13.83
2018-02-19T16:59:42.901Z,14.97
2018-02-19T17:02:11.651Z,13.57
2018-02-19T17:04:40.751Z,14.93
2018-02-19T17:07:10.243Z,15.10
2018-02-19T17:09:39.369Z,16.30
2018-02-19T17:12:08.527Z,14.43
2018-02-19T17:14:37.654Z,15.53
2018-02-19T17:17:06.431Z,15.37
2018-02-19T17:19:35.801Z,16.43
2018-02-19T17:22:05.221Z,15.47
2018-02-19T17:24:35.432Z,16.10
2018-02-19T17:27:04.299Z,16.30
2018-02-19T17:29:33.384Z,16.80
2018-02-19T17:32:02.138Z,15.87
2018-02-19T17:34:31.143Z,18.03
2018-02-19T17:36:59.999Z,16.60
2018-02-19T17:39:29.109Z,17.50
2018-02-19T17:41:59.020Z,17.73
2018-02-19T17:44:27.877Z,16.80
2018-02-19T17:46:57.276Z,17.10
2018-02-19T17:49:26.509Z,17.00
2018-02-19T17:52:00.621Z,16.67
2018-02-19T17:54:31.703Z,17.97
2018-02-19T17:57:01.482Z,17.43
2018-02-19T17:59:30.710Z,18.97
2018-02-19T18:01:59.719Z,17.33
2018-02-19T18:04:28.858Z,19.93
2018-02-19T18:06:57.956Z,17.50
2018-02-19T18:09:27.775Z,18.30
2018-02-19T18:11:56.823Z,17.30
2018-02-19T18:14:25.671Z,18.10
2018-02-19T18:16:54.566Z,16.73
2018-02-19T18:19:23.432Z,17.67
2018-02-19T18:21:52.606Z,17.90
2018-02-19T18:24:21.634Z,19.33
2018-02-19T18:26:50.954Z,19.77
2018-02-19T18:29:20.218Z,18.97
2018-02-19T18:31:49.699Z,21.97
2018-02-19T18:34:18.599Z,20.20
2018-02-19T18:36:47.663Z,20.20
2018-02-19T18:39:16.498Z,21.23
2018-02-19T18:41:45.730Z,20.93
2018-02-19T18:44:16.847Z,19.20
2018-02-19T18:46:45.839Z,21.40
2018-02-19T18:49:14.830Z,22.60
2018-02-19T18:51:43.927Z,20.53
2018-02-19T18:54:13.018Z,21.47
2018-02-19T18:56:42.116Z,19.40
2018-02-19T18:59:14.211Z,20.50
2018-02-19T19:01:43.119Z,19.60
2018-02-19T19:04:12.790Z,20.50
2018-02-19T19:06:43.440Z,20.80
2018-02-19T19:09:23.289Z,20.40
2018-02-19T19:11:52.561Z,20.03
2018-02-19T19:14:21.686Z,21.00
2018-02-19T19:16:51.194Z,20.27
2018-02-19T19:19:21.304Z,19.70
2018-02-19T19:21:50.436Z,20.80
2018-02-19T19:24:19.666Z,21.77
2018-02-19T19:26:49.129Z,20.80
2018-02-19T19:29:18.483Z,20.70
2018-02-19T19:31:47.709Z,19.27
2018-02-19T19:34:16.882Z,21.27
2018-02-19T19:36:46.039Z,20.97
2018-02-19T19:39:15.058Z,21.33
2018-02-19T19:41:44.001Z,20.30
2018-02-19T19:44:13.863Z,20.20
2018-02-19T19:46:43.367Z,21.20
2018-02-19T19:49:12.677Z,21.77
2018-02-19T19:51:41.972Z,21.40
2018-02-19T19:54:11.012Z,21.93
2018-02-19T19:56:39.954Z,22.83
2018-02-19T19:59:08.717Z,20.10
2018-02-19T20:01:37.479Z,22.13
2018-02-19T20:04:06.598Z,21.57
2018-02-19T20:06:35.314Z,21.87
2018-02-19T20:09:04.216Z,23.97
2018-02-19T20:11:33.368Z,22.07
2018-02-19T20:14:02.359Z,24.80
2018-02-19T20:16:31.762Z,23.37
2018-02-19T20:19:02.284Z,22.70
2018-02-19T20:21:34.811Z,22.77
2018-02-19T20:24:04.007Z,21.90
2018-02-19T20:26:33.037Z,22.80
2018-02-19T20:29:02.177Z,22.37
2018-02-19T20:31:32.006Z,21.77
2018-02-19T20:34:00.884Z,22.87
2018-02-19T20:36:29.828Z,22.17
2018-02-19T20:38:58.678Z,22.27
2018-02-19T20:41:27.466Z,22.97
2018-02-19T20:43:56.349Z,22.47
2018-02-19T20:46:25.663Z,20.80
2018-02-19T20:48:54.747Z,21.80
2018-02-19T20:51:23.819Z,21.87
2018-02-19T20:53:57.273Z,23.13
2018-02-19T20:56:31.512Z,21.80
2018-02-19T20:59:00.763Z,23.00
2018-02-19T21:01:29.985Z,21.37
2018-02-19T21:03:59.604Z,22.00
2018-02-19T21:06:28.678Z,23.30
2018-02-19T21:08:57.959Z,21.70
2018-02-19T21:11:27.101Z,22.20
2018-02-19T21:13:56.359Z,23.17
2018-02-19T21:16:26.124Z,21.33
2018-02-19T21:18:56.223Z,23.00
2018-02-19T21:21:26.102Z,23.20
2018-02-19T21:23:55.174Z,21.20
2018-02-19T21:26:24.279Z,22.47
2018-02-19T21:28:54.002Z,23.50
2018-02-19T21:31:23.070Z,23.87
2018-02-19T21:33:51.975Z,20.87
2018-02-19T21:36:21.007Z,21.23
2018-02-19T21:38:52.929Z,22.07
2018-02-19T21:41:22.210Z,23.97
2018-02-19T21:43:51.243Z,22.43
2018-02-19T21:46:20.310Z,21.33
2018-02-19T21:48:49.702Z,22.60
2018-02-19T21:51:18.765Z,21.93
2018-02-19T21:53:47.708Z,21.67
2018-02-19T21:56:16.798Z,22.13
2018-02-19T21:58:45.692Z,21.77
2018-02-19T22:01:14.852Z,22.33
2018-02-19T22:03:43.904Z,19.80
2018-02-19T22:06:12.833Z,20.40
2018-02-19T22:08:41.667Z,20.10
2018-02-19T22:11:10.482Z,20.87
2018-02-19T22:13:39.519Z,22.30
2018-02-19T22:16:08.335Z,21.53
2018-02-19T22:18:37.230Z,22.60
2018-02-19T22:21:07.758Z,21.40
2018-02-19T22:23:36.854Z,22.43
2018-02-19T22:26:05.954Z,20.43
2018-02-19T22:28:35.172Z,19.93
2018-02-19T22:31:03.857Z,21.60
2018-02-19T22:33:32.691Z,20.67
2018-02-19T22:36:01.517Z,22.30
2018-02-19T22:38:30.397Z,21.63
2018-02-19T22:40:59.679Z,21.03
2018-02-19T22:43:28.515Z,21.10
2018-02-19T22:45:57.510Z,21.33
2018-02-19T22:48:26.688Z,20.73
2018-02-19T22:50:55.410Z,20.10
2018-02-19T22:53:24.558Z,23.03
2018-02-19T22:55:53.290Z,20.80
2018-02-19T22:58:22.049Z,20.50
2018-02-19T23:00:51.100Z,22.30
2018-02-19T23:03:20.151Z,21.17
2018-02-19T23:05:49.208Z,21.87
2018-02-19T23:08:18.321Z,20.97
2018-02-19T23:10:47.208Z,20.00
2018-02-19T23:13:16.229Z,19.70
2018-02-19T23:15:45.197Z,20.47
2018-02-19T23:18:13.962Z,21.60
2018-02-19T23:20:43.025Z,21.67
2018-02-19T23:23:12.143Z,20.97
2018-02-19T23:25:41.564Z,21.83
2018-02-19T23:28:10.846Z,22.73
2018-02-19T23:30:39.978Z,20.97
2018-02-19T23:33:09.486Z,21.07
2018-02-19T23:35:38.699Z,21.07
2018-02-19T23:38:07.664Z,23.77
2018-02-19T23:40:36.951Z,22.70
2018-02-19T23:43:06.067Z,21.90
2018-02-19T23:45:35.074Z,23.00
2018-02-19T23:48:07.969Z,21.20
2018-02-19T23:50:37.041Z,22.07
2018-02-19T23:53:06.648Z,22.50
2018-02-19T23:55:35.835Z,21.80
2018-02-19T23:58:06.092Z,22.13
